createdAt,value
2019-01-10T00:00:20.873Z,0.00
2019-01-10T00:01:20.964Z,0.00
2019-01-10T00:02:20.884Z,0.00
2019-01-10T00:03:20.883Z,4.00
2019-01-10T00:04:20.893Z,0.00
2019-01-10T00:05:20.898Z,0.00
2019-01-10T00:06:20.910Z,0.00
2019-01-10T00:07:20.920Z,0.00
2019-01-10T00:08:20.926Z,0.00
2019-01-10T00:09:20.939Z,0.00
2019-01-10T00:10:20.949Z,0.00
2019-01-10T00:11:20.953Z,0.00
2019-01-10T00:12:20.963Z,0.00
2019-01-10T00:13:20.972Z,0.00
2019-01-10T00:14:20.978Z,0.00
2019-01-10T00:15:20.988Z,0.00
2019-01-10T00:16:21.000Z,0.00
2019-01-10T00:17:21.010Z,0.00
2019-01-10T00:18:21.022Z,0.00
2019-01-10T00:19:21.024Z,0.00
2019-01-10T00:20:21.037Z,0.00
2019-01-10T00:21:21.041Z,0.00
2019-01-10T00:22:21.052Z,0.00
2019-01-10T00:23:21.061Z,0.00
2019-01-10T00:24:21.071Z,0.00
2019-01-10T00:25:21.078Z,0.00
2019-01-10T00:26:21.088Z,0.00
2019-01-10T00:27:21.107Z,0.00
2019-01-10T00:29:21.115Z,0.00
2019-01-10T00:30:21.121Z,0.00
2019-01-10T00:31:21.149Z,0.00
2019-01-10T00:32:21.146Z,0.00
2019-01-10T00:33:21.152Z,0.00
2019-01-10T00:34:21.160Z,0.00
2019-01-10T00:35:21.167Z,0.00
2019-01-10T00:36:21.183Z,0.00
2019-01-10T00:37:21.183Z,0.00
2019-01-10T00:38:21.200Z,0.00
2019-01-10T00:39:21.205Z,0.00
2019-01-10T00:40:21.212Z,0.00
2019-01-10T00:41:21.222Z,0.00
2019-01-10T00:42:21.230Z,0.00
2019-01-10T00:43:21.238Z,0.00
2019-01-10T00:44:21.252Z,0.00
2019-01-10T00:45:21.568Z,0.00
2019-01-10T00:46:21.270Z,0.00
2019-01-10T00:47:21.274Z,0.00
2019-01-10T00:48:21.285Z,0.00
2019-01-10T00:49:21.290Z,0.00
2019-01-10T00:50:21.305Z,0.00
2019-01-10T00:51:21.309Z,0.00
2019-01-10T00:52:21.326Z,0.00
2019-01-10T00:53:21.328Z,0.00
2019-01-10T00:54:21.337Z,0.00
2019-01-10T00:55:21.343Z,0.00
2019-01-10T00:56:21.357Z,0.00
2019-01-10T00:57:21.363Z,0.00
2019-01-10T00:58:21.374Z,0.00
2019-01-10T00:59:21.381Z,0.00
2019-01-10T01:00:21.390Z,0.00
2019-01-10T01:01:21.398Z,0.00
2019-01-10T01:02:21.411Z,0.00
2019-01-10T01:03:21.418Z,0.00
2019-01-10T01:04:21.437Z,0.00
2019-01-10T01:05:21.435Z,0.00
2019-01-10T01:06:21.448Z,0.00
2019-01-10T01:07:21.455Z,0.00
2019-01-10T01:08:21.459Z,0.00
2019-01-10T01:09:21.469Z,0.00
2019-01-10T01:10:21.498Z,0.00
2019-01-10T01:11:21.490Z,0.00
2019-01-10T01:12:21.497Z,0.00
2019-01-10T01:13:21.508Z,0.00
2019-01-10T01:14:21.516Z,0.00
2019-01-10T01:15:21.520Z,0.00
2019-01-10T01:16:21.534Z,0.00
2019-01-10T01:17:21.541Z,0.00
2019-01-10T01:18:21.551Z,0.00
2019-01-10T01:19:21.589Z,0.00
2019-01-10T01:20:21.567Z,0.00
2019-01-10T01:21:21.576Z,0.00
2019-01-10T01:22:21.591Z,0.00
2019-01-10T01:23:21.595Z,0.00
2019-01-10T01:24:21.605Z,0.00
2019-01-10T01:25:21.610Z,0.00
2019-01-10T01:26:21.621Z,0.00
2019-01-10T01:27:21.631Z,0.00
2019-01-10T01:28:21.642Z,0.00
2019-01-10T01:29:21.652Z,0.00
2019-01-10T01:30:21.657Z,0.00
2019-01-10T01:31:21.665Z,0.00
2019-01-10T01:32:21.681Z,0.00
2019-01-10T01:33:21.687Z,0.00
2019-01-10T01:34:21.710Z,0.00
2019-01-10T01:35:21.830Z,0.00
2019-01-10T01:36:21.711Z,0.00
2019-01-10T01:37:21.722Z,0.00
2019-01-10T01:38:21.728Z,0.00
2019-01-10T01:39:21.736Z,0.00
2019-01-10T01:40:21.744Z,0.00
2019-01-10T01:41:21.751Z,0.00
2019-01-10T01:42:21.765Z,0.00
2019-01-10T01:43:21.777Z,0.00
2019-01-10T01:44:21.787Z,0.00
2019-01-10T01:45:21.790Z,0.00
2019-01-10T01:46:21.801Z,0.00
2019-01-10T01:47:21.835Z,0.00
2019-01-10T01:48:21.817Z,0.00
2019-01-10T01:49:21.826Z,0.00
2019-01-10T01:50:21.837Z,0.00
2019-01-10T01:51:21.844Z,0.00
2019-01-10T01:52:21.855Z,0.00
2019-01-10T01:53:21.862Z,0.00
2019-01-10T01:54:21.874Z,0.00
2019-01-10T01:55:21.944Z,0.00
2019-01-10T01:56:21.889Z,0.00
2019-01-10T01:57:21.897Z,0.00
2019-01-10T01:58:21.910Z,0.00
2019-01-10T01:59:21.915Z,0.00
2019-01-10T02:00:21.925Z,0.00
2019-01-10T02:01:21.932Z,0.00
2019-01-10T02:02:21.947Z,0.00
2019-01-10T02:03:21.952Z,0.00
2019-01-10T02:04:21.959Z,0.00
2019-01-10T02:05:21.965Z,0.00
2019-01-10T02:06:21.977Z,0.00
2019-01-10T02:07:21.988Z,0.00
2019-01-10T02:08:22.006Z,0.00
2019-01-10T02:09:22.002Z,0.00
2019-01-10T02:10:22.020Z,0.00
2019-01-10T02:11:22.035Z,0.00
2019-01-10T02:12:22.029Z,0.00
2019-01-10T02:13:22.040Z,0.00
2019-01-10T02:14:22.047Z,0.00
2019-01-10T02:15:22.059Z,0.00
2019-01-10T02:16:22.066Z,0.00
2019-01-10T02:17:22.080Z,0.00
2019-01-10T02:18:22.102Z,0.00
2019-01-10T02:19:22.191Z,0.00
2019-01-10T02:20:22.102Z,0.00
2019-01-10T02:21:22.109Z,0.00
2019-01-10T02:22:22.118Z,0.00
2019-01-10T02:23:22.130Z,0.00
2019-01-10T02:24:22.136Z,0.00
2019-01-10T02:25:22.149Z,0.00
2019-01-10T02:26:22.156Z,0.00
2019-01-10T02:27:22.168Z,0.00
2019-01-10T02:28:22.174Z,0.00
2019-01-10T02:29:22.180Z,0.00
2019-01-10T02:30:22.189Z,0.00
2019-01-10T02:31:22.203Z,0.00
2019-01-10T02:32:22.214Z,0.00
2019-01-10T02:33:22.247Z,0.00
2019-01-10T02:34:22.226Z,0.00
2019-01-10T02:35:22.244Z,0.00
2019-01-10T02:36:22.244Z,0.00
2019-01-10T02:37:22.291Z,0.00
2019-01-10T02:38:22.269Z,0.00
2019-01-10T02:39:22.272Z,0.00
2019-01-10T02:40:22.280Z,0.00
2019-01-10T02:41:22.307Z,0.00
2019-01-10T02:42:22.312Z,0.00
2019-01-10T02:43:26.688Z,0.00
2019-01-10T02:44:22.318Z,0.00
2019-01-10T02:45:22.332Z,0.00
2019-01-10T02:46:22.334Z,0.00
2019-01-10T02:47:22.340Z,0.00
2019-01-10T02:48:22.350Z,0.00
2019-01-10T02:49:22.371Z,0.00
2019-01-10T02:50:22.420Z,0.00
2019-01-10T02:51:22.378Z,0.00
2019-01-10T02:52:22.386Z,0.00
2019-01-10T02:53:22.394Z,0.00
2019-01-10T02:54:22.705Z,0.00
2019-01-10T02:55:22.416Z,0.00
2019-01-10T02:56:22.425Z,0.00
2019-01-10T02:57:22.429Z,0.00
2019-01-10T02:58:22.440Z,0.00
2019-01-10T02:59:22.454Z,0.00
2019-01-10T03:00:22.470Z,0.00
2019-01-10T03:01:22.474Z,0.00
2019-01-10T03:02:22.474Z,0.00
2019-01-10T03:03:22.484Z,0.00
2019-01-10T03:04:22.494Z,0.00
2019-01-10T03:05:22.498Z,0.00
2019-01-10T03:06:22.511Z,0.00
2019-01-10T03:07:22.519Z,0.00
2019-01-10T03:08:22.541Z,0.00
2019-01-10T03:09:23.232Z,0.00
2019-01-10T03:10:22.543Z,0.00
2019-01-10T03:11:22.552Z,0.00
2019-01-10T03:12:22.567Z,0.00
2019-01-10T03:13:22.575Z,0.00
2019-01-10T03:14:22.595Z,0.00
2019-01-10T03:15:22.590Z,0.00
2019-01-10T03:16:22.596Z,0.00
2019-01-10T03:17:22.605Z,0.00
2019-01-10T03:18:22.616Z,0.00
2019-01-10T03:19:22.635Z,0.00
2019-01-10T03:20:22.638Z,0.00
2019-01-10T03:21:22.643Z,0.00
2019-01-10T03:22:22.656Z,0.00
2019-01-10T03:23:22.668Z,0.00
2019-01-10T03:24:22.681Z,0.00
2019-01-10T03:25:22.693Z,0.00
2019-01-10T03:26:22.685Z,0.00
2019-01-10T03:27:22.723Z,0.00
2019-01-10T03:28:22.721Z,0.00
2019-01-10T03:29:22.715Z,0.00
2019-01-10T03:30:22.726Z,0.00
2019-01-10T03:31:22.738Z,0.00
2019-01-10T03:32:22.755Z,0.00
2019-01-10T03:33:22.758Z,0.00
2019-01-10T03:34:22.760Z,0.00
2019-01-10T03:35:22.784Z,0.00
2019-01-10T03:36:22.776Z,0.00
2019-01-10T03:37:22.789Z,0.00
2019-01-10T03:38:22.793Z,0.00
2019-01-10T03:39:22.804Z,0.00
2019-01-10T03:40:22.814Z,0.00
2019-01-10T03:41:22.824Z,0.00
2019-01-10T03:42:22.835Z,0.00
2019-01-10T03:43:22.842Z,0.00
2019-01-10T03:44:22.851Z,0.00
2019-01-10T03:45:22.858Z,0.00
2019-01-10T03:46:22.867Z,0.00
2019-01-10T03:47:22.879Z,0.00
2019-01-10T03:48:22.887Z,0.00
2019-01-10T03:49:22.895Z,0.00
2019-01-10T03:50:22.906Z,0.00
2019-01-10T03:51:22.913Z,0.00
2019-01-10T03:52:22.932Z,0.00
2019-01-10T03:53:22.928Z,0.00
2019-01-10T03:54:22.938Z,0.00
2019-01-10T03:55:22.946Z,0.00
2019-01-10T03:56:22.966Z,0.00
2019-01-10T03:57:22.973Z,0.00
2019-01-10T03:58:22.993Z,0.00
2019-01-10T03:59:22.981Z,0.00
2019-01-10T04:00:23.045Z,0.00
2019-01-10T04:01:23.009Z,0.00
2019-01-10T04:02:23.013Z,0.00
2019-01-10T04:03:23.022Z,0.00
2019-01-10T04:04:23.028Z,0.00
2019-01-10T04:05:23.035Z,0.00
2019-01-10T04:06:23.051Z,0.00
2019-01-10T04:07:23.054Z,0.00
2019-01-10T04:08:23.065Z,0.00
2019-01-10T04:09:23.078Z,0.00
2019-01-10T04:10:23.080Z,0.00
2019-01-10T04:11:23.091Z,0.00
2019-01-10T04:12:23.303Z,0.00
2019-01-10T04:13:23.108Z,0.00
2019-01-10T04:14:23.117Z,0.00
2019-01-10T04:15:23.134Z,0.00
2019-01-10T04:16:23.137Z,0.00
2019-01-10T04:17:23.141Z,0.00
2019-01-10T04:18:23.150Z,0.00
2019-01-10T04:19:23.158Z,0.00
2019-01-10T04:20:23.171Z,0.00
2019-01-10T04:21:23.180Z,0.00
2019-01-10T04:22:23.187Z,0.00
2019-01-10T04:23:23.195Z,0.00
2019-01-10T04:24:23.207Z,0.00
2019-01-10T04:25:23.218Z,0.00
2019-01-10T04:26:23.272Z,0.00
2019-01-10T04:27:23.233Z,0.00
2019-01-10T04:28:23.243Z,0.00
2019-01-10T04:29:23.251Z,0.00
2019-01-10T04:30:23.261Z,0.00
2019-01-10T04:31:23.276Z,0.00
2019-01-10T04:32:23.287Z,0.00
2019-01-10T04:33:23.289Z,0.00
2019-01-10T04:34:23.296Z,0.00
2019-01-10T04:35:23.308Z,0.00
2019-01-10T04:37:23.319Z,0.00
2019-01-10T04:38:23.329Z,0.00
2019-01-10T04:39:23.339Z,0.00
2019-01-10T04:40:23.350Z,0.00
2019-01-10T04:41:23.355Z,0.00
2019-01-10T04:42:23.371Z,0.00
2019-01-10T04:43:23.374Z,0.00
2019-01-10T04:44:23.386Z,0.00
2019-01-10T04:45:23.393Z,0.00
2019-01-10T04:46:23.401Z,0.00
2019-01-10T04:47:23.454Z,0.00
2019-01-10T04:48:23.418Z,0.00
2019-01-10T04:49:23.428Z,0.00
2019-01-10T04:50:23.435Z,0.00
2019-01-10T04:51:23.446Z,0.00
2019-01-10T04:52:23.480Z,0.00
2019-01-10T04:53:23.495Z,0.00
2019-01-10T04:54:23.481Z,0.00
2019-01-10T04:55:23.480Z,0.00
2019-01-10T04:56:23.498Z,0.00
2019-01-10T04:57:23.500Z,0.00
2019-01-10T04:59:23.518Z,4.00
2019-01-10T05:00:23.524Z,4.00
2019-01-10T05:01:23.532Z,4.00
2019-01-10T05:02:23.542Z,4.00
2019-01-10T05:03:23.551Z,4.00
2019-01-10T05:04:23.559Z,4.00
2019-01-10T05:05:23.575Z,4.00
2019-01-10T05:06:23.580Z,4.00
2019-01-10T05:07:23.608Z,4.00
2019-01-10T05:08:23.595Z,4.00
2019-01-10T05:09:23.607Z,4.00
2019-01-10T05:10:23.627Z,4.00
2019-01-10T05:11:23.626Z,4.00
2019-01-10T05:12:23.630Z,4.00
2019-01-10T05:13:23.639Z,4.00
2019-01-10T05:14:23.650Z,4.00
2019-01-10T05:15:23.659Z,4.00
2019-01-10T05:16:23.666Z,4.00
2019-01-10T05:17:23.679Z,4.00
2019-01-10T05:18:23.693Z,4.00
2019-01-10T05:19:23.694Z,4.00
2019-01-10T05:20:23.702Z,4.00
2019-01-10T05:21:23.718Z,4.00
2019-01-10T05:22:23.727Z,4.00
2019-01-10T05:23:23.736Z,4.00
2019-01-10T05:24:23.754Z,4.00
2019-01-10T05:25:23.748Z,4.00
2019-01-10T05:26:23.793Z,4.00
2019-01-10T05:27:23.766Z,4.00
2019-01-10T05:28:23.786Z,4.00
2019-01-10T05:29:23.804Z,4.00
2019-01-10T05:30:23.799Z,4.00
2019-01-10T05:31:23.796Z,4.00
2019-01-10T05:32:23.825Z,4.00
2019-01-10T05:33:23.829Z,4.00
2019-01-10T05:34:23.843Z,4.00
2019-01-10T05:35:23.844Z,4.00
2019-01-10T05:36:23.908Z,4.00
2019-01-10T05:37:23.876Z,4.00
2019-01-10T05:38:23.870Z,4.00
2019-01-10T05:39:23.873Z,4.00
2019-01-10T05:40:23.892Z,4.00
2019-01-10T05:41:23.887Z,4.00
2019-01-10T05:42:23.904Z,4.00
2019-01-10T05:43:23.905Z,4.00
2019-01-10T05:44:26.677Z,4.00
2019-01-10T05:45:23.924Z,4.00
2019-01-10T05:46:23.932Z,4.00
2019-01-10T05:47:23.941Z,4.00
2019-01-10T05:48:23.965Z,4.00
2019-01-10T05:49:23.964Z,4.00
2019-01-10T05:50:23.979Z,4.00
2019-01-10T05:51:23.991Z,4.00
2019-01-10T05:52:24.014Z,4.00
2019-01-10T05:53:24.014Z,4.00
2019-01-10T05:54:24.055Z,4.00
2019-01-10T05:55:24.020Z,4.00
2019-01-10T05:56:24.030Z,4.00
2019-01-10T05:57:24.034Z,4.00
2019-01-10T05:58:24.055Z,4.00
2019-01-10T05:59:25.261Z,4.00
2019-01-10T06:00:24.067Z,4.00
2019-01-10T06:01:24.068Z,4.00
2019-01-10T06:02:24.089Z,4.00
2019-01-10T06:03:24.106Z,4.00
2019-01-10T06:04:24.166Z,4.00
2019-01-10T06:05:24.120Z,4.00
2019-01-10T06:06:24.118Z,4.00
2019-01-10T06:07:24.117Z,4.00
2019-01-10T06:08:24.149Z,4.00
2019-01-10T06:09:24.165Z,4.00
2019-01-10T06:10:24.149Z,4.00
2019-01-10T06:11:24.171Z,4.00
2019-01-10T06:12:24.174Z,4.00
2019-01-10T06:13:24.191Z,4.00
2019-01-10T06:14:24.188Z,4.00
2019-01-10T06:15:24.208Z,4.00
2019-01-10T06:16:24.222Z,4.00
2019-01-10T06:17:24.209Z,4.00
2019-01-10T06:18:24.220Z,4.00
2019-01-10T06:19:27.011Z,4.00
2019-01-10T06:20:24.247Z,4.00
2019-01-10T06:21:24.246Z,4.00
2019-01-10T06:22:24.253Z,4.00
2019-01-10T06:23:24.260Z,4.00
2019-01-10T06:24:24.272Z,4.00
2019-01-10T06:25:24.299Z,4.00
2019-01-10T06:26:24.304Z,4.00
2019-01-10T06:27:24.328Z,0.00
2019-01-10T06:28:24.318Z,4.00
2019-01-10T06:29:24.314Z,4.00
2019-01-10T06:30:24.436Z,4.00
2019-01-10T06:31:24.334Z,4.00
2019-01-10T06:32:24.339Z,4.00
2019-01-10T06:33:24.371Z,4.00
2019-01-10T06:34:24.361Z,4.00
2019-01-10T06:35:24.399Z,4.00
2019-01-10T06:36:24.398Z,4.00
2019-01-10T06:37:24.391Z,4.00
2019-01-10T06:38:24.404Z,4.00
2019-01-10T06:39:24.405Z,4.00
2019-01-10T06:40:24.441Z,0.00
2019-01-10T06:41:24.441Z,4.00
2019-01-10T06:42:24.429Z,8.00
2019-01-10T06:43:24.447Z,8.00
2019-01-10T06:44:24.465Z,8.00
2019-01-10T06:45:24.474Z,8.00
2019-01-10T06:46:24.491Z,4.00
2019-01-10T06:47:24.470Z,4.00
2019-01-10T06:48:24.482Z,4.00
2019-01-10T06:49:24.510Z,4.00
2019-01-10T06:50:24.499Z,4.00
2019-01-10T06:51:24.508Z,4.00
2019-01-10T06:52:24.518Z,4.00
2019-01-10T06:53:24.530Z,4.00
2019-01-10T06:54:24.582Z,4.00
2019-01-10T06:55:24.575Z,4.00
2019-01-10T06:56:24.567Z,4.00
2019-01-10T06:57:24.561Z,4.00
2019-01-10T06:58:24.634Z,4.00
2019-01-10T06:59:24.715Z,4.00
2019-01-10T07:00:24.593Z,4.00
2019-01-10T07:01:24.615Z,4.00
2019-01-10T07:02:24.615Z,4.00
2019-01-10T07:03:24.616Z,4.00
2019-01-10T07:04:24.624Z,4.00
2019-01-10T07:05:24.635Z,4.00
2019-01-10T07:06:24.642Z,4.00
2019-01-10T07:07:24.650Z,8.00
2019-01-10T07:08:24.657Z,8.00
2019-01-10T07:09:24.664Z,4.00
2019-01-10T07:10:24.735Z,4.00
2019-01-10T07:11:24.729Z,4.00
2019-01-10T07:12:24.693Z,8.00
2019-01-10T07:13:24.701Z,8.00
2019-01-10T07:14:24.712Z,8.00
2019-01-10T07:15:24.721Z,4.00
2019-01-10T07:16:24.735Z,8.00
2019-01-10T07:17:24.738Z,8.00
2019-01-10T07:18:24.947Z,8.00
2019-01-10T07:19:24.761Z,8.00
2019-01-10T07:20:24.785Z,8.00
2019-01-10T07:21:24.785Z,8.00
2019-01-10T07:22:24.823Z,8.00
2019-01-10T07:23:24.792Z,8.00
2019-01-10T07:24:24.809Z,12.00
2019-01-10T07:25:24.901Z,8.00
2019-01-10T07:26:24.827Z,12.00
2019-01-10T07:27:24.836Z,12.00
2019-01-10T07:28:24.834Z,16.00
2019-01-10T07:29:24.858Z,16.00
2019-01-10T07:30:24.871Z,20.00
2019-01-10T07:31:24.874Z,20.00
2019-01-10T07:32:24.917Z,24.00
2019-01-10T07:33:24.892Z,24.00
2019-01-10T07:34:24.891Z,28.00
2019-01-10T07:35:25.765Z,32.00
2019-01-10T07:36:24.944Z,36.00
2019-01-10T07:37:24.938Z,44.00
2019-01-10T07:38:24.964Z,44.00
2019-01-10T07:39:24.980Z,44.00
2019-01-10T07:40:24.951Z,48.00
2019-01-10T07:41:24.982Z,48.00
2019-01-10T07:42:24.992Z,52.00
2019-01-10T07:43:24.975Z,52.00
2019-01-10T07:44:25.020Z,56.00
2019-01-10T07:45:25.001Z,56.00
2019-01-10T07:46:24.993Z,60.00
2019-01-10T07:47:25.029Z,64.00
2019-01-10T07:48:25.028Z,64.00
2019-01-10T07:49:25.043Z,72.00
2019-01-10T07:50:25.037Z,76.00
2019-01-10T07:51:25.033Z,80.00
2019-01-10T07:52:25.047Z,84.00
2019-01-10T07:53:25.055Z,92.00
2019-01-10T07:54:25.060Z,92.00
2019-01-10T07:55:25.073Z,96.00
2019-01-10T07:56:25.085Z,96.00
2019-01-10T07:57:25.093Z,100.00
2019-01-10T07:58:25.107Z,104.00
2019-01-10T07:59:25.115Z,104.00
2019-01-10T08:00:25.122Z,104.00
2019-01-10T08:01:25.157Z,108.00
2019-01-10T08:02:25.133Z,108.00
2019-01-10T08:03:25.165Z,108.00
2019-01-10T08:04:25.162Z,108.00
2019-01-10T08:06:25.172Z,120.00
2019-01-10T08:07:25.814Z,128.00
2019-01-10T08:08:25.207Z,136.00
2019-01-10T08:09:25.198Z,140.00
2019-01-10T08:10:25.244Z,148.00
2019-01-10T08:11:25.219Z,152.00
2019-01-10T08:12:25.231Z,156.00
2019-01-10T08:13:25.403Z,164.00
2019-01-10T08:14:25.254Z,168.00
2019-01-10T08:15:25.254Z,180.00
2019-01-10T08:16:25.264Z,188.00
2019-01-10T08:17:25.272Z,200.00
2019-01-10T08:18:25.289Z,204.00
2019-01-10T08:19:25.293Z,212.00
2019-01-10T08:20:25.298Z,216.00
2019-01-10T08:21:25.311Z,228.00
2019-01-10T08:22:28.063Z,236.00
2019-01-10T08:23:25.329Z,244.00
2019-01-10T08:24:25.350Z,248.00
2019-01-10T08:25:25.341Z,252.00
2019-01-10T08:26:25.354Z,248.00
2019-01-10T08:27:25.366Z,252.00
2019-01-10T08:28:25.370Z,256.00
2019-01-10T08:29:25.398Z,268.00
2019-01-10T08:30:25.391Z,280.00
2019-01-10T08:31:25.404Z,292.00
2019-01-10T08:32:25.407Z,308.00
2019-01-10T08:33:25.567Z,324.00
2019-01-10T08:34:25.442Z,332.00
2019-01-10T08:35:25.480Z,344.00
2019-01-10T08:36:32.461Z,352.00
2019-01-10T08:37:25.455Z,364.00
2019-01-10T08:38:25.467Z,376.00
2019-01-10T08:39:25.472Z,388.00
2019-01-10T08:40:25.492Z,404.00
2019-01-10T08:41:25.496Z,420.00
2019-01-10T08:42:25.500Z,432.00
2019-01-10T08:43:25.510Z,436.00
2019-01-10T08:44:25.552Z,448.00
2019-01-10T08:45:25.524Z,452.00
2019-01-10T08:46:25.540Z,460.00
2019-01-10T08:47:25.543Z,484.00
2019-01-10T08:48:25.553Z,512.00
2019-01-10T08:49:25.565Z,540.00
2019-01-10T08:50:25.583Z,568.00
2019-01-10T08:51:26.698Z,584.00
2019-01-10T08:52:25.598Z,592.00
2019-01-10T08:53:25.613Z,604.00
2019-01-10T08:54:25.619Z,628.00
2019-01-10T08:55:25.621Z,656.00
2019-01-10T08:56:25.636Z,684.00
2019-01-10T08:57:25.638Z,708.00
2019-01-10T08:58:25.648Z,724.00
2019-01-10T08:59:25.665Z,732.00
2019-01-10T09:00:25.667Z,740.00
2019-01-10T09:01:26.082Z,752.00
2019-01-10T09:02:25.685Z,776.00
2019-01-10T09:03:25.690Z,796.00
2019-01-10T09:04:25.701Z,820.00
2019-01-10T09:05:25.712Z,832.00
2019-01-10T09:06:25.719Z,836.00
2019-01-10T09:07:25.732Z,836.00
2019-01-10T09:08:25.739Z,840.00
2019-01-10T09:09:27.180Z,840.00
2019-01-10T09:10:25.758Z,820.00
2019-01-10T09:11:25.770Z,796.00
2019-01-10T09:12:25.784Z,772.00
2019-01-10T09:13:25.789Z,752.00
2019-01-10T09:14:25.796Z,740.00
2019-01-10T09:15:34.282Z,732.00
2019-01-10T09:16:25.820Z,728.00
2019-01-10T09:17:25.826Z,728.00
2019-01-10T09:18:25.834Z,716.00
2019-01-10T09:19:25.854Z,716.00
2019-01-10T09:20:25.854Z,728.00
2019-01-10T09:21:25.864Z,748.00
2019-01-10T09:22:25.869Z,788.00
2019-01-10T09:23:25.882Z,828.00
2019-01-10T09:24:25.888Z,860.00
2019-01-10T09:25:25.902Z,876.00
2019-01-10T09:26:29.384Z,880.00
2019-01-10T09:27:25.929Z,880.00
2019-01-10T09:28:25.927Z,892.00
2019-01-10T09:29:25.936Z,916.00
2019-01-10T09:30:26.513Z,960.00
2019-01-10T09:31:25.957Z,1012.00
2019-01-10T09:32:25.968Z,1072.00
2019-01-10T09:33:25.972Z,1140.00
2019-01-10T09:34:25.995Z,1212.00
2019-01-10T09:35:25.994Z,1276.00
2019-01-10T09:36:26.011Z,1356.00
2019-01-10T09:37:26.017Z,1424.00
2019-01-10T09:38:26.049Z,1460.00
2019-01-10T09:39:26.031Z,1472.00
2019-01-10T09:40:26.048Z,1432.00
2019-01-10T09:41:26.078Z,1388.00
2019-01-10T09:42:26.061Z,1336.00
2019-01-10T09:43:26.071Z,1336.00
2019-01-10T09:44:26.083Z,1356.00
2019-01-10T09:45:26.092Z,1384.00
2019-01-10T09:46:26.109Z,1392.00
2019-01-10T09:47:26.112Z,1384.00
2019-01-10T09:48:26.124Z,1344.00
2019-01-10T09:49:26.135Z,1304.00
2019-01-10T09:50:26.140Z,1272.00
2019-01-10T09:51:26.161Z,1248.00
2019-01-10T09:52:26.160Z,1248.00
2019-01-10T09:53:26.885Z,1260.00
2019-01-10T09:54:26.179Z,1268.00
2019-01-10T09:55:26.189Z,1256.00
2019-01-10T09:56:26.206Z,1236.00
2019-01-10T09:57:26.231Z,1212.00
2019-01-10T09:58:26.216Z,1188.00
2019-01-10T09:59:26.345Z,1152.00
2019-01-10T10:00:26.230Z,1124.00
2019-01-10T10:01:26.248Z,1112.00
2019-01-10T10:02:26.245Z,1124.00
2019-01-10T10:03:26.264Z,1148.00
2019-01-10T10:04:26.266Z,1148.00
2019-01-10T10:05:26.275Z,1144.00
2019-01-10T10:06:26.301Z,1128.00
2019-01-10T10:07:26.395Z,1104.00
2019-01-10T10:08:26.306Z,1084.00
2019-01-10T10:09:26.599Z,1060.00
2019-01-10T10:10:26.323Z,1052.00
2019-01-10T10:11:33.991Z,1044.00
2019-01-10T10:12:26.350Z,1036.00
2019-01-10T10:13:26.360Z,1048.00
2019-01-10T10:14:26.368Z,1044.00
2019-01-10T10:15:26.395Z,1044.00
2019-01-10T10:16:26.384Z,1064.00
2019-01-10T10:17:26.397Z,1012.00
2019-01-10T10:18:26.402Z,1008.00
2019-01-10T10:19:26.412Z,964.00
2019-01-10T10:20:26.444Z,928.00
2019-01-10T10:21:26.436Z,896.00
2019-01-10T10:22:26.450Z,860.00
2019-01-10T10:23:26.868Z,824.00
2019-01-10T10:24:26.460Z,788.00
2019-01-10T10:25:26.471Z,756.00
2019-01-10T10:26:26.479Z,740.00
2019-01-10T10:27:26.495Z,732.00
2019-01-10T10:28:26.510Z,732.00
2019-01-10T10:29:26.510Z,740.00
2019-01-10T10:30:26.519Z,756.00
2019-01-10T10:31:26.531Z,768.00
2019-01-10T10:32:26.540Z,772.00
2019-01-10T10:33:26.552Z,752.00
2019-01-10T10:34:26.559Z,732.00
2019-01-10T10:35:26.567Z,704.00
2019-01-10T10:36:26.576Z,680.00
2019-01-10T10:37:26.605Z,656.00
2019-01-10T10:38:26.607Z,656.00
2019-01-10T10:39:26.603Z,648.00
2019-01-10T10:40:26.612Z,652.00
2019-01-10T10:41:26.625Z,664.00
2019-01-10T10:42:26.635Z,668.00
2019-01-10T10:43:26.644Z,672.00
2019-01-10T10:44:26.653Z,672.00
2019-01-10T10:45:26.666Z,688.00
2019-01-10T10:46:26.675Z,704.00
2019-01-10T10:47:26.687Z,736.00
2019-01-10T10:48:26.691Z,772.00
2019-01-10T10:49:26.700Z,804.00
2019-01-10T10:50:26.715Z,828.00
2019-01-10T10:51:26.721Z,848.00
2019-01-10T10:52:26.736Z,868.00
2019-01-10T10:53:26.744Z,896.00
2019-01-10T10:54:26.751Z,916.00
2019-01-10T10:55:26.756Z,940.00
2019-01-10T10:56:26.770Z,964.00
2019-01-10T10:57:26.779Z,1000.00
2019-01-10T10:58:26.785Z,1028.00
2019-01-10T10:59:26.796Z,1052.00
2019-01-10T11:00:26.807Z,1056.00
2019-01-10T11:01:26.818Z,1052.00
2019-01-10T11:02:26.824Z,1060.00
2019-01-10T11:03:26.832Z,1076.00
2019-01-10T11:04:26.848Z,1104.00
2019-01-10T11:05:26.858Z,1136.00
2019-01-10T11:06:26.864Z,1172.00
2019-01-10T11:07:26.898Z,1192.00
2019-01-10T11:08:26.886Z,1220.00
2019-01-10T11:09:26.920Z,1260.00
2019-01-10T11:10:26.919Z,1312.00
2019-01-10T11:11:26.914Z,1348.00
2019-01-10T11:12:26.925Z,1364.00
2019-01-10T11:13:26.935Z,1360.00
2019-01-10T11:14:26.941Z,1348.00
2019-01-10T11:15:27.049Z,1332.00
2019-01-10T11:16:26.964Z,1332.00
2019-01-10T11:17:26.970Z,1328.00
2019-01-10T11:18:26.989Z,1332.00
2019-01-10T11:19:26.991Z,1340.00
2019-01-10T11:20:27.004Z,1340.00
2019-01-10T11:21:27.009Z,1328.00
2019-01-10T11:22:27.020Z,1292.00
2019-01-10T11:23:27.029Z,1248.00
2019-01-10T11:24:27.065Z,1240.00
2019-01-10T11:25:27.060Z,1248.00
2019-01-10T11:26:27.072Z,1264.00
2019-01-10T11:27:27.081Z,1260.00
2019-01-10T11:28:27.079Z,1244.00
2019-01-10T11:29:27.094Z,1228.00
2019-01-10T11:30:27.097Z,1208.00
2019-01-10T11:31:27.123Z,1188.00
2019-01-10T11:32:27.128Z,1172.00
2019-01-10T11:33:27.130Z,1176.00
2019-01-10T11:34:27.139Z,1208.00
2019-01-10T11:35:27.157Z,1260.00
2019-01-10T11:36:27.159Z,1300.00
2019-01-10T11:37:27.170Z,1312.00
2019-01-10T11:38:27.179Z,1304.00
2019-01-10T11:39:27.194Z,1280.00
2019-01-10T11:40:27.216Z,1260.00
2019-01-10T11:41:27.222Z,1280.00
2019-01-10T11:42:27.224Z,1304.00
2019-01-10T11:43:27.232Z,1304.00
2019-01-10T11:44:27.240Z,1252.00
2019-01-10T11:45:27.251Z,1216.00
2019-01-10T11:46:27.261Z,1200.00
2019-01-10T11:47:27.268Z,1184.00
2019-01-10T11:48:27.278Z,1176.00
2019-01-10T11:49:27.299Z,1184.00
2019-01-10T11:50:27.303Z,1204.00
2019-01-10T11:51:27.315Z,1224.00
2019-01-10T11:52:27.320Z,1236.00
2019-01-10T11:53:35.234Z,1252.00
2019-01-10T11:54:27.337Z,1268.00
2019-01-10T11:55:27.346Z,1264.00
2019-01-10T11:56:27.363Z,1248.00
2019-01-10T11:57:28.149Z,1240.00
2019-01-10T11:58:27.381Z,1256.00
2019-01-10T11:59:27.387Z,1300.00
2019-01-10T12:00:27.401Z,1376.00
2019-01-10T12:01:27.405Z,1444.00
2019-01-10T12:02:36.105Z,1480.00
2019-01-10T12:03:27.435Z,1468.00
2019-01-10T12:04:27.445Z,1452.00
2019-01-10T12:05:27.447Z,1468.00
2019-01-10T12:06:27.456Z,1508.00
2019-01-10T12:07:27.482Z,1584.00
2019-01-10T12:08:27.481Z,1668.00
2019-01-10T12:09:27.489Z,1748.00
2019-01-10T12:10:27.499Z,1808.00
2019-01-10T12:11:27.508Z,1872.00
2019-01-10T12:12:27.520Z,1904.00
2019-01-10T12:13:27.530Z,1892.00
2019-01-10T12:14:27.542Z,1848.00
2019-01-10T12:15:27.552Z,1776.00
2019-01-10T12:16:28.601Z,1712.00
2019-01-10T12:17:27.573Z,1656.00
2019-01-10T12:18:27.581Z,1612.00
2019-01-10T12:19:27.588Z,1560.00
2019-01-10T12:20:27.602Z,1504.00
2019-01-10T12:21:27.613Z,1464.00
2019-01-10T12:22:27.625Z,1448.00
2019-01-10T12:23:27.657Z,1444.00
2019-01-10T12:24:27.645Z,1452.00
2019-01-10T12:25:27.668Z,1484.00
2019-01-10T12:26:27.665Z,1496.00
2019-01-10T12:27:27.692Z,1512.00
2019-01-10T12:28:27.681Z,1564.00
2019-01-10T12:29:35.939Z,1644.00
2019-01-10T12:30:27.704Z,1692.00
2019-01-10T12:31:27.714Z,1676.00
2019-01-10T12:32:27.730Z,1628.00
2019-01-10T12:33:27.732Z,1604.00
2019-01-10T12:34:27.745Z,1596.00
2019-01-10T12:35:27.754Z,1588.00
2019-01-10T12:36:27.768Z,1560.00
2019-01-10T12:37:27.778Z,1520.00
2019-01-10T12:38:27.816Z,1480.00
2019-01-10T12:39:27.797Z,1468.00
2019-01-10T12:40:27.806Z,1496.00
2019-01-10T12:41:27.814Z,1540.00
2019-01-10T12:42:27.826Z,1640.00
2019-01-10T12:43:27.859Z,1748.00
2019-01-10T12:44:27.845Z,1844.00
2019-01-10T12:45:27.859Z,1916.00
2019-01-10T12:46:27.872Z,1920.00
2019-01-10T12:47:27.887Z,1900.00
2019-01-10T12:48:27.886Z,1896.00
2019-01-10T12:49:27.895Z,1920.00
2019-01-10T12:50:27.906Z,1940.00
2019-01-10T12:51:27.925Z,1948.00
2019-01-10T12:52:35.091Z,1852.00
2019-01-10T12:53:28.002Z,1740.00
2019-01-10T12:54:30.536Z,1716.00
2019-01-10T12:55:27.960Z,1796.00